sensor_id;sensor_type;location;lat;lon;timestamp;P1;durP1;ratioP1;P2;durP2;ratioP2
58101;SDS011;52034;51.926;6.320;2022-07-06T00:00:52;3.03;;;2.47;;
58101;SDS011;52034;51.926;6.320;2022-07-06T00:01:53;3.73;;;1.90;;
58101;SDS011;52034;51.926;6.320;2022-07-06T00:02:53;2.47;;;2.17;;
58101;SDS011;52034;51.926;6.320;2022-07-06T00:03:53;2.70;;;2.17;;
58101;SDS011;52034;51.926;6.320;2022-07-06T00:04:54;2.70;;;2.10;;
58101;SDS011;52034;51.926;6.320;2022-07-06T00:05:54;3.33;;;2.40;;
58101;SDS011;52034;51.926;6.320;2022-07-06T00:06:54;2.40;;;2.20;;
58101;SDS011;52034;51.926;6.320;2022-07-06T00:07:55;3.17;;;2.03;;
58101;SDS011;52034;51.926;6.320;2022-07-06T00:08:55;3.93;;;2.30;;
58101;SDS011;52034;51.926;6.320;2022-07-06T00:09:55;2.50;;;2.30;;
58101;SDS011;52034;51.926;6.320;2022-07-06T00:10:56;2.77;;;2.50;;
58101;SDS011;52034;51.926;6.320;2022-07-06T00:11:56;4.07;;;2.80;;
58101;SDS011;52034;51.926;6.320;2022-07-06T00:12:56;5.33;;;2.63;;
58101;SDS011;52034;51.926;6.320;2022-07-06T00:13:57;2.97;;;2.03;;
58101;SDS011;52034;51.926;6.320;2022-07-06T00:14:57;3.10;;;2.37;;
58101;SDS011;52034;51.926;6.320;2022-07-06T00:15:57;3.60;;;2.50;;
58101;SDS011;52034;51.926;6.320;2022-07-06T00:16:58;2.97;;;2.40;;
58101;SDS011;52034;51.926;6.320;2022-07-06T00:17:58;5.77;;;2.30;;
58101;SDS011;52034;51.926;6.320;2022-07-06T00:18:58;3.63;;;2.00;;
58101;SDS011;52034;51.926;6.320;2022-07-06T00:19:59;4.60;;;2.40;;
58101;SDS011;52034;51.926;6.320;2022-07-06T00:20:59;3.20;;;2.23;;
58101;SDS011;52034;51.926;6.320;2022-07-06T00:21:59;5.13;;;2.10;;
58101;SDS011;52034;51.926;6.320;2022-07-06T00:23:00;3.20;;;2.30;;
58101;SDS011;52034;51.926;6.320;2022-07-06T00:24:00;4.17;;;1.70;;
58101;SDS011;52034;51.926;6.320;2022-07-06T00:25:00;2.97;;;1.70;;
58101;SDS011;52034;51.926;6.320;2022-07-06T00:26:01;5.00;;;2.10;;
58101;SDS011;52034;51.926;6.320;2022-07-06T00:27:02;2.00;;;1.90;;
58101;SDS011;52034;51.926;6.320;2022-07-06T00:28:02;3.53;;;2.00;;
58101;SDS011;52034;51.926;6.320;2022-07-06T00:29:03;3.63;;;2.00;;
58101;SDS011;52034;51.926;6.320;2022-07-06T00:30:03;5.20;;;2.10;;
58101;SDS011;52034;51.926;6.320;2022-07-06T00:31:04;4.93;;;2.07;;
58101;SDS011;52034;51.926;6.320;2022-07-06T00:32:05;2.92;;;2.00;;
58101;SDS011;52034;51.926;6.320;2022-07-06T00:33:06;3.73;;;2.07;;
58101;SDS011;52034;51.926;6.320;2022-07-06T00:34:06;4.03;;;2.03;;
58101;SDS011;52034;51.926;6.320;2022-07-06T00:35:07;3.30;;;1.97;;
58101;SDS011;52034;51.926;6.320;2022-07-06T00:36:07;2.43;;;1.97;;
58101;SDS011;52034;51.926;6.320;2022-07-06T00:37:08;2.73;;;1.80;;
58101;SDS011;52034;51.926;6.320;2022-07-06T00:38:08;3.67;;;2.17;;
58101;SDS011;52034;51.926;6.320;2022-07-06T00:39:08;3.93;;;1.97;;
58101;SDS011;52034;51.926;6.320;2022-07-06T00:40:09;2.37;;;1.93;;
58101;SDS011;52034;51.926;6.320;2022-07-06T00:41:09;3.60;;;2.10;;
58101;SDS011;52034;51.926;6.320;2022-07-06T00:42:09;3.17;;;1.97;;
58101;SDS011;52034;51.926;6.320;2022-07-06T00:43:10;2.23;;;2.03;;
58101;SDS011;52034;51.926;6.320;2022-07-06T00:44:10;2.47;;;2.07;;
58101;SDS011;52034;51.926;6.320;2022-07-06T00:45:11;8.00;;;2.10;;
58101;SDS011;52034;51.926;6.320;2022-07-06T00:46:12;2.78;;;1.77;;
58101;SDS011;52034;51.926;6.320;2022-07-06T00:47:12;4.27;;;2.50;;
58101;SDS011;52034;51.926;6.320;2022-07-06T00:48:12;5.00;;;2.20;;
58101;SDS011;52034;51.926;6.320;2022-07-06T00:49:13;5.67;;;2.17;;
58101;SDS011;52034;51.926;6.320;2022-07-06T00:50:39;2.00;;;1.70;;
58101;SDS011;52034;51.926;6.320;2022-07-06T00:51:40;3.13;;;2.03;;
58101;SDS011;52034;51.926;6.320;2022-07-06T00:53:22;2.53;;;2.10;;
58101;SDS011;52034;51.926;6.320;2022-07-06T00:54:04;3.03;;;1.70;;
58101;SDS011;52034;51.926;6.320;2022-07-06T00:55:05;2.70;;;1.80;;
58101;SDS011;52034;51.926;6.320;2022-07-06T00:56:05;2.83;;;1.83;;
58101;SDS011;52034;51.926;6.320;2022-07-06T00:57:06;3.73;;;2.27;;
58101;SDS011;52034;51.926;6.320;2022-07-06T00:58:07;2.33;;;1.90;;
58101;SDS011;52034;51.926;6.320;2022-07-06T00:59:08;2.05;;;1.85;;
58101;SDS011;52034;51.926;6.320;2022-07-06T01:00:09;2.57;;;1.80;;
58101;SDS011;52034;51.926;6.320;2022-07-06T01:01:11;2.30;;;1.88;;
58101;SDS011;52034;51.926;6.320;2022-07-06T01:02:11;2.93;;;2.10;;
58101;SDS011;52034;51.926;6.320;2022-07-06T01:03:12;4.03;;;2.07;;
58101;SDS011;52034;51.926;6.320;2022-07-06T01:04:12;3.70;;;1.90;;
58101;SDS011;52034;51.926;6.320;2022-07-06T01:05:13;2.27;;;1.67;;
58101;SDS011;52034;51.926;6.320;2022-07-06T01:06:13;5.82;;;2.40;;
58101;SDS011;52034;51.926;6.320;2022-07-06T01:07:14;3.57;;;2.10;;
58101;SDS011;52034;51.926;6.320;2022-07-06T01:08:14;2.00;;;1.80;;
58101;SDS011;52034;51.926;6.320;2022-07-06T01:10:17;2.75;;;2.30;;
58101;SDS011;52034;51.926;6.320;2022-07-06T01:12:19;2.83;;;1.80;;
58101;SDS011;52034;51.926;6.320;2022-07-06T01:13:19;2.27;;;2.10;;
58101;SDS011;52034;51.926;6.320;2022-07-06T01:14:20;4.13;;;2.37;;
58101;SDS011;52034;51.926;6.320;2022-07-06T01:15:21;4.63;;;2.03;;
58101;SDS011;52034;51.926;6.320;2022-07-06T01:16:23;2.40;;;1.80;;
58101;SDS011;52034;51.926;6.320;2022-07-06T01:17:23;2.23;;;1.90;;
58101;SDS011;52034;51.926;6.320;2022-07-06T01:18:24;4.23;;;2.47;;
58101;SDS011;52034;51.926;6.320;2022-07-06T01:19:24;3.07;;;2.00;;
58101;SDS011;52034;51.926;6.320;2022-07-06T01:20:25;2.93;;;2.20;;
58101;SDS011;52034;51.926;6.320;2022-07-06T01:21:26;3.00;;;2.20;;
58101;SDS011;52034;51.926;6.320;2022-07-06T01:22:26;5.33;;;2.50;;
58101;SDS011;52034;51.926;6.320;2022-07-06T01:23:26;4.90;;;2.17;;
58101;SDS011;52034;51.926;6.320;2022-07-06T01:24:27;4.80;;;2.00;;
58101;SDS011;52034;51.926;6.320;2022-07-06T01:25:27;4.50;;;2.20;;
58101;SDS011;52034;51.926;6.320;2022-07-06T01:26:27;2.93;;;1.83;;
58101;SDS011;52034;51.926;6.320;2022-07-06T01:27:28;4.57;;;2.20;;
58101;SDS011;52034;51.926;6.320;2022-07-06T01:28:28;2.63;;;2.20;;
58101;SDS011;52034;51.926;6.320;2022-07-06T01:29:29;4.30;;;2.17;;
58101;SDS011;52034;51.926;6.320;2022-07-06T01:30:29;3.37;;;2.10;;
58101;SDS011;52034;51.926;6.320;2022-07-06T01:31:29;5.37;;;2.53;;
58101;SDS011;52034;51.926;6.320;2022-07-06T01:32:30;3.67;;;1.97;;
58101;SDS011;52034;51.926;6.320;2022-07-06T01:33:30;3.07;;;2.57;;
58101;SDS011;52034;51.926;6.320;2022-07-06T01:34:31;5.77;;;2.53;;
58101;SDS011;52034;51.926;6.320;2022-07-06T01:35:31;3.70;;;2.20;;
58101;SDS011;52034;51.926;6.320;2022-07-06T01:36:32;5.30;;;2.40;;
58101;SDS011;52034;51.926;6.320;2022-07-06T01:37:33;2.90;;;2.17;;
58101;SDS011;52034;51.926;6.320;2022-07-06T01:38:42;3.47;;;2.27;;
58101;SDS011;52034;51.926;6.320;2022-07-06T01:39:44;3.53;;;2.28;;
58101;SDS011;52034;51.926;6.320;2022-07-06T01:40:44;3.80;;;2.60;;
58101;SDS011;52034;51.926;6.320;2022-07-06T01:41:44;3.97;;;2.60;;
58101;SDS011;52034;51.926;6.320;2022-07-06T01:42:45;3.83;;;2.40;;
58101;SDS011;52034;51.926;6.320;2022-07-06T01:43:45;3.97;;;2.40;;
58101;SDS011;52034;51.926;6.320;2022-07-06T01:44:46;2.22;;;2.00;;
58101;SDS011;52034;51.926;6.320;2022-07-06T01:45:46;2.90;;;2.10;;
58101;SDS011;52034;51.926;6.320;2022-07-06T01:46:47;4.40;;;2.10;;
58101;SDS011;52034;51.926;6.320;2022-07-06T01:47:47;2.80;;;1.93;;
58101;SDS011;52034;51.926;6.320;2022-07-06T01:48:47;3.40;;;2.20;;
58101;SDS011;52034;51.926;6.320;2022-07-06T01:49:48;4.70;;;2.40;;
58101;SDS011;52034;51.926;6.320;2022-07-06T01:50:48;2.93;;;2.13;;
58101;SDS011;52034;51.926;6.320;2022-07-06T01:51:48;4.57;;;2.03;;
58101;SDS011;52034;51.926;6.320;2022-07-06T01:52:49;4.80;;;2.23;;
58101;SDS011;52034;51.926;6.320;2022-07-06T01:53:49;4.60;;;2.50;;
58101;SDS011;52034;51.926;6.320;2022-07-06T01:54:50;4.55;;;2.50;;
58101;SDS011;52034;51.926;6.320;2022-07-06T01:55:53;6.00;;;2.42;;
58101;SDS011;52034;51.926;6.320;2022-07-06T01:56:54;4.40;;;2.43;;
58101;SDS011;52034;51.926;6.320;2022-07-06T01:57:54;3.80;;;2.20;;
58101;SDS011;52034;51.926;6.320;2022-07-06T01:58:54;4.83;;;2.50;;
58101;SDS011;52034;51.926;6.320;2022-07-06T01:59:55;4.70;;;2.43;;
58101;SDS011;52034;51.926;6.320;2022-07-06T02:00:55;3.57;;;2.30;;
58101;SDS011;52034;51.926;6.320;2022-07-06T02:01:55;4.53;;;2.40;;
58101;SDS011;52034;51.926;6.320;2022-07-06T02:02:56;3.27;;;2.47;;
58101;SDS011;52034;51.926;6.320;2022-07-06T02:03:56;6.53;;;2.73;;
58101;SDS011;52034;51.926;6.320;2022-07-06T02:04:56;4.60;;;2.50;;
58101;SDS011;52034;51.926;6.320;2022-07-06T02:05:57;5.90;;;2.50;;
58101;SDS011;52034;51.926;6.320;2022-07-06T02:06:57;5.53;;;2.23;;
58101;SDS011;52034;51.926;6.320;2022-07-06T02:07:57;3.70;;;2.20;;
58101;SDS011;52034;51.926;6.320;2022-07-06T02:08:58;7.93;;;2.57;;
58101;SDS011;52034;51.926;6.320;2022-07-06T02:09:58;4.30;;;2.37;;
58101;SDS011;52034;51.926;6.320;2022-07-06T02:10:58;5.33;;;2.73;;
58101;SDS011;52034;51.926;6.320;2022-07-06T02:11:58;4.50;;;2.50;;
58101;SDS011;52034;51.926;6.320;2022-07-06T02:12:59;4.03;;;2.50;;
58101;SDS011;52034;51.926;6.320;2022-07-06T02:13:59;3.33;;;2.33;;
58101;SDS011;52034;51.926;6.320;2022-07-06T02:14:59;4.97;;;2.90;;
58101;SDS011;52034;51.926;6.320;2022-07-06T02:16:00;3.87;;;2.00;;
58101;SDS011;52034;51.926;6.320;2022-07-06T02:17:00;4.77;;;2.60;;
58101;SDS011;52034;51.926;6.320;2022-07-06T02:18:00;7.67;;;2.90;;
58101;SDS011;52034;51.926;6.320;2022-07-06T02:19:01;3.23;;;2.43;;
58101;SDS011;52034;51.926;6.320;2022-07-06T02:20:01;4.27;;;2.70;;
58101;SDS011;52034;51.926;6.320;2022-07-06T02:21:04;4.82;;;2.63;;
58101;SDS011;52034;51.926;6.320;2022-07-06T02:22:04;6.43;;;2.45;;
58101;SDS011;52034;51.926;6.320;2022-07-06T02:23:04;4.37;;;3.10;;
58101;SDS011;52034;51.926;6.320;2022-07-06T02:24:05;4.23;;;2.63;;
58101;SDS011;52034;51.926;6.320;2022-07-06T02:25:05;2.50;;;2.30;;
58101;SDS011;52034;51.926;6.320;2022-07-06T02:26:06;3.33;;;2.50;;
58101;SDS011;52034;51.926;6.320;2022-07-06T02:27:06;5.40;;;2.13;;
58101;SDS011;52034;51.926;6.320;2022-07-06T02:28:07;3.50;;;2.13;;
58101;SDS011;52034;51.926;6.320;2022-07-06T02:29:07;3.30;;;2.33;;
58101;SDS011;52034;51.926;6.320;2022-07-06T02:30:07;2.77;;;2.40;;
58101;SDS011;52034;51.926;6.320;2022-07-06T02:31:08;3.60;;;2.63;;
58101;SDS011;52034;51.926;6.320;2022-07-06T02:32:09;2.35;;;2.15;;
58101;SDS011;52034;51.926;6.320;2022-07-06T02:33:09;3.70;;;2.43;;
58101;SDS011;52034;51.926;6.320;2022-07-06T02:34:10;2.90;;;2.50;;
58101;SDS011;52034;51.926;6.320;2022-07-06T02:35:10;3.23;;;2.33;;
58101;SDS011;52034;51.926;6.320;2022-07-06T02:36:10;6.43;;;2.70;;
58101;SDS011;52034;51.926;6.320;2022-07-06T02:37:11;3.67;;;2.60;;
58101;SDS011;52034;51.926;6.320;2022-07-06T02:38:11;3.47;;;2.37;;
58101;SDS011;52034;51.926;6.320;2022-07-06T02:39:12;4.13;;;2.40;;
58101;SDS011;52034;51.926;6.320;2022-07-06T02:40:12;2.47;;;2.23;;
58101;SDS011;52034;51.926;6.320;2022-07-06T02:41:12;5.87;;;2.30;;
58101;SDS011;52034;51.926;6.320;2022-07-06T02:42:13;4.90;;;2.47;;
58101;SDS011;52034;51.926;6.320;2022-07-06T02:43:13;2.27;;;1.83;;
58101;SDS011;52034;51.926;6.320;2022-07-06T02:44:13;3.53;;;2.27;;
58101;SDS011;52034;51.926;6.320;2022-07-06T02:45:14;4.07;;;2.47;;
58101;SDS011;52034;51.926;6.320;2022-07-06T02:46:14;4.00;;;2.13;;
58101;SDS011;52034;51.926;6.320;2022-07-06T02:47:14;2.97;;;2.20;;
58101;SDS011;52034;51.926;6.320;2022-07-06T02:48:15;4.33;;;2.53;;
58101;SDS011;52034;51.926;6.320;2022-07-06T02:49:15;4.50;;;2.23;;
58101;SDS011;52034;51.926;6.320;2022-07-06T02:50:15;3.43;;;2.43;;
58101;SDS011;52034;51.926;6.320;2022-07-06T02:51:16;3.70;;;2.40;;
58101;SDS011;52034;51.926;6.320;2022-07-06T02:52:16;4.57;;;2.23;;
58101;SDS011;52034;51.926;6.320;2022-07-06T02:53:17;3.43;;;2.47;;
58101;SDS011;52034;51.926;6.320;2022-07-06T02:54:18;3.00;;;2.30;;
58101;SDS011;52034;51.926;6.320;2022-07-06T02:55:18;3.53;;;2.03;;
58101;SDS011;52034;51.926;6.320;2022-07-06T02:56:19;3.77;;;2.17;;
58101;SDS011;52034;51.926;6.320;2022-07-06T02:57:19;5.23;;;2.40;;
58101;SDS011;52034;51.926;6.320;2022-07-06T02:58:19;3.83;;;2.33;;
58101;SDS011;52034;51.926;6.320;2022-07-06T02:59:20;4.80;;;2.67;;
58101;SDS011;52034;51.926;6.320;2022-07-06T03:00:20;6.27;;;2.30;;
58101;SDS011;52034;51.926;6.320;2022-07-06T03:01:20;4.07;;;2.80;;
58101;SDS011;52034;51.926;6.320;2022-07-06T03:02:21;3.60;;;2.80;;
58101;SDS011;52034;51.926;6.320;2022-07-06T03:03:21;2.83;;;2.27;;
58101;SDS011;52034;51.926;6.320;2022-07-06T03:04:22;2.83;;;2.57;;
58101;SDS011;52034;51.926;6.320;2022-07-06T03:05:22;2.87;;;2.47;;
58101;SDS011;52034;51.926;6.320;2022-07-06T03:06:22;2.93;;;2.63;;
58101;SDS011;52034;51.926;6.320;2022-07-06T03:07:23;4.57;;;2.67;;
58101;SDS011;52034;51.926;6.320;2022-07-06T03:08:23;3.83;;;2.97;;
58101;SDS011;52034;51.926;6.320;2022-07-06T03:09:24;7.70;;;2.70;;
58101;SDS011;52034;51.926;6.320;2022-07-06T03:10:24;3.90;;;2.47;;
58101;SDS011;52034;51.926;6.320;2022-07-06T03:11:24;6.73;;;2.80;;
58101;SDS011;52034;51.926;6.320;2022-07-06T03:12:25;5.50;;;3.03;;
58101;SDS011;52034;51.926;6.320;2022-07-06T03:13:25;5.17;;;2.80;;
58101;SDS011;52034;51.926;6.320;2022-07-06T03:14:26;5.53;;;3.10;;
58101;SDS011;52034;51.926;6.320;2022-07-06T03:15:27;2.90;;;2.60;;
58101;SDS011;52034;51.926;6.320;2022-07-06T03:16:27;8.10;;;2.90;;
58101;SDS011;52034;51.926;6.320;2022-07-06T03:17:27;5.60;;;2.83;;
58101;SDS011;52034;51.926;6.320;2022-07-06T03:18:27;5.27;;;2.83;;
58101;SDS011;52034;51.926;6.320;2022-07-06T03:19:28;3.17;;;2.47;;
58101;SDS011;52034;51.926;6.320;2022-07-06T03:20:28;8.00;;;2.83;;
58101;SDS011;52034;51.926;6.320;2022-07-06T03:21:28;3.73;;;2.63;;
58101;SDS011;52034;51.926;6.320;2022-07-06T03:22:29;6.00;;;3.10;;
58101;SDS011;52034;51.926;6.320;2022-07-06T03:23:29;5.80;;;2.80;;
58101;SDS011;52034;51.926;6.320;2022-07-06T03:24:30;4.40;;;3.00;;
58101;SDS011;52034;51.926;6.320;2022-07-06T03:25:30;3.50;;;2.70;;
58101;SDS011;52034;51.926;6.320;2022-07-06T03:26:32;7.32;;;3.10;;
58101;SDS011;52034;51.926;6.320;2022-07-06T03:27:32;5.43;;;2.50;;
58101;SDS011;52034;51.926;6.320;2022-07-06T03:28:33;5.50;;;3.13;;
58101;SDS011;52034;51.926;6.320;2022-07-06T03:29:34;3.57;;;3.00;;
58101;SDS011;52034;51.926;6.320;2022-07-06T03:30:34;5.07;;;2.80;;
58101;SDS011;52034;51.926;6.320;2022-07-06T03:31:34;4.27;;;2.97;;
58101;SDS011;52034;51.926;6.320;2022-07-06T03:32:35;6.03;;;3.33;;
58101;SDS011;52034;51.926;6.320;2022-07-06T03:33:35;6.03;;;2.97;;
58101;SDS011;52034;51.926;6.320;2022-07-06T03:34:36;9.23;;;3.80;;
58101;SDS011;52034;51.926;6.320;2022-07-06T03:35:36;2.80;;;2.60;;
58101;SDS011;52034;51.926;6.320;2022-07-06T03:36:38;7.00;;;3.00;;
58101;SDS011;52034;51.926;6.320;2022-07-06T03:37:39;7.87;;;3.20;;
58101;SDS011;52034;51.926;6.320;2022-07-06T03:38:39;5.77;;;3.03;;
58101;SDS011;52034;51.926;6.320;2022-07-06T03:39:40;5.30;;;3.20;;
58101;SDS011;52034;51.926;6.320;2022-07-06T03:40:40;3.37;;;2.67;;
58101;SDS011;52034;51.926;6.320;2022-07-06T03:41:40;9.60;;;3.00;;
58101;SDS011;52034;51.926;6.320;2022-07-06T03:42:41;3.27;;;2.87;;
58101;SDS011;52034;51.926;6.320;2022-07-06T03:43:41;5.23;;;3.03;;
58101;SDS011;52034;51.926;6.320;2022-07-06T03:44:41;4.00;;;3.33;;
58101;SDS011;52034;51.926;6.320;2022-07-06T03:45:42;5.77;;;2.67;;
58101;SDS011;52034;51.926;6.320;2022-07-06T03:46:42;4.70;;;2.80;;
58101;SDS011;52034;51.926;6.320;2022-07-06T03:47:42;5.40;;;3.00;;
58101;SDS011;52034;51.926;6.320;2022-07-06T03:48:43;6.40;;;2.93;;
58101;SDS011;52034;51.926;6.320;2022-07-06T03:49:43;5.97;;;2.97;;
58101;SDS011;52034;51.926;6.320;2022-07-06T03:50:43;4.70;;;2.93;;
58101;SDS011;52034;51.926;6.320;2022-07-06T03:51:44;4.87;;;2.83;;
58101;SDS011;52034;51.926;6.320;2022-07-06T03:52:44;4.23;;;2.70;;
58101;SDS011;52034;51.926;6.320;2022-07-06T03:53:44;4.53;;;2.80;;
58101;SDS011;52034;51.926;6.320;2022-07-06T03:54:45;8.57;;;3.20;;
58101;SDS011;52034;51.926;6.320;2022-07-06T03:55:45;6.30;;;2.67;;
58101;SDS011;52034;51.926;6.320;2022-07-06T03:57:08;5.07;;;2.92;;
58101;SDS011;52034;51.926;6.320;2022-07-06T03:58:08;4.23;;;2.57;;
58101;SDS011;52034;51.926;6.320;2022-07-06T03:59:09;4.73;;;2.90;;
58101;SDS011;52034;51.926;6.320;2022-07-06T04:00:09;3.80;;;2.90;;
58101;SDS011;52034;51.926;6.320;2022-07-06T04:01:10;5.07;;;2.95;;
58101;SDS011;52034;51.926;6.320;2022-07-06T04:02:10;4.47;;;2.90;;
58101;SDS011;52034;51.926;6.320;2022-07-06T04:03:10;4.00;;;2.40;;
58101;SDS011;52034;51.926;6.320;2022-07-06T04:04:11;4.93;;;2.73;;
58101;SDS011;52034;51.926;6.320;2022-07-06T04:05:11;7.83;;;3.20;;
58101;SDS011;52034;51.926;6.320;2022-07-06T04:06:11;5.87;;;3.13;;
58101;SDS011;52034;51.926;6.320;2022-07-06T04:07:12;3.63;;;2.50;;
58101;SDS011;52034;51.926;6.320;2022-07-06T04:08:12;5.63;;;2.90;;
58101;SDS011;52034;51.926;6.320;2022-07-06T04:09:12;3.73;;;2.80;;
58101;SDS011;52034;51.926;6.320;2022-07-06T04:10:12;4.27;;;2.53;;
58101;SDS011;52034;51.926;6.320;2022-07-06T04:11:13;3.63;;;2.60;;
58101;SDS011;52034;51.926;6.320;2022-07-06T04:12:13;8.67;;;2.80;;
58101;SDS011;52034;51.926;6.320;2022-07-06T04:13:14;4.20;;;2.87;;
58101;SDS011;52034;51.926;6.320;2022-07-06T04:14:14;6.43;;;2.83;;
58101;SDS011;52034;51.926;6.320;2022-07-06T04:15:14;3.57;;;2.77;;
58101;SDS011;52034;51.926;6.320;2022-07-06T04:16:15;2.97;;;2.50;;
58101;SDS011;52034;51.926;6.320;2022-07-06T04:17:15;5.83;;;2.60;;
58101;SDS011;52034;51.926;6.320;2022-07-06T04:18:34;4.03;;;2.80;;
58101;SDS011;52034;51.926;6.320;2022-07-06T04:19:34;4.17;;;2.60;;
58101;SDS011;52034;51.926;6.320;2022-07-06T04:20:35;3.47;;;2.63;;
58101;SDS011;52034;51.926;6.320;2022-07-06T04:21:35;5.20;;;2.60;;
58101;SDS011;52034;51.926;6.320;2022-07-06T04:22:39;4.97;;;2.40;;
58101;SDS011;52034;51.926;6.320;2022-07-06T04:23:40;7.00;;;2.70;;
58101;SDS011;52034;51.926;6.320;2022-07-06T04:24:40;4.93;;;2.60;;
58101;SDS011;52034;51.926;6.320;2022-07-06T04:25:40;3.67;;;2.33;;
58101;SDS011;52034;51.926;6.320;2022-07-06T04:26:41;4.40;;;2.20;;
58101;SDS011;52034;51.926;6.320;2022-07-06T04:27:41;3.47;;;2.57;;
58101;SDS011;52034;51.926;6.320;2022-07-06T04:28:41;3.23;;;2.57;;
58101;SDS011;52034;51.926;6.320;2022-07-06T04:29:42;4.87;;;2.20;;
58101;SDS011;52034;51.926;6.320;2022-07-06T04:30:42;3.57;;;2.43;;
58101;SDS011;52034;51.926;6.320;2022-07-06T04:31:42;2.77;;;2.17;;
58101;SDS011;52034;51.926;6.320;2022-07-06T04:32:43;4.33;;;2.63;;
58101;SDS011;52034;51.926;6.320;2022-07-06T04:33:43;3.47;;;2.50;;
58101;SDS011;52034;51.926;6.320;2022-07-06T04:34:43;7.70;;;2.60;;
58101;SDS011;52034;51.926;6.320;2022-07-06T04:35:44;5.93;;;2.30;;
58101;SDS011;52034;51.926;6.320;2022-07-06T04:36:44;7.30;;;2.50;;
58101;SDS011;52034;51.926;6.320;2022-07-06T04:37:44;4.90;;;2.40;;
58101;SDS011;52034;51.926;6.320;2022-07-06T04:38:45;6.13;;;2.50;;
58101;SDS011;52034;51.926;6.320;2022-07-06T04:39:47;5.85;;;2.38;;
58101;SDS011;52034;51.926;6.320;2022-07-06T04:40:47;3.67;;;2.27;;
58101;SDS011;52034;51.926;6.320;2022-07-06T04:41:48;4.50;;;3.37;;
58101;SDS011;52034;51.926;6.320;2022-07-06T04:42:48;3.73;;;2.37;;
58101;SDS011;52034;51.926;6.320;2022-07-06T04:43:49;4.27;;;2.30;;
58101;SDS011;52034;51.926;6.320;2022-07-06T04:44:49;3.23;;;2.43;;
58101;SDS011;52034;51.926;6.320;2022-07-06T04:45:51;4.85;;;2.22;;
58101;SDS011;52034;51.926;6.320;2022-07-06T04:46:51;4.90;;;2.60;;
58101;SDS011;52034;51.926;6.320;2022-07-06T04:47:52;6.57;;;2.70;;
58101;SDS011;52034;51.926;6.320;2022-07-06T04:48:52;3.13;;;2.20;;
58101;SDS011;52034;51.926;6.320;2022-07-06T04:49:52;5.87;;;2.43;;
58101;SDS011;52034;51.926;6.320;2022-07-06T04:50:53;3.73;;;2.30;;
58101;SDS011;52034;51.926;6.320;2022-07-06T04:51:53;7.17;;;2.30;;
58101;SDS011;52034;51.926;6.320;2022-07-06T04:52:53;6.67;;;2.30;;
58101;SDS011;52034;51.926;6.320;2022-07-06T04:53:54;3.97;;;2.50;;
58101;SDS011;52034;51.926;6.320;2022-07-06T04:54:54;3.87;;;2.50;;
58101;SDS011;52034;51.926;6.320;2022-07-06T04:55:55;6.83;;;2.57;;
58101;SDS011;52034;51.926;6.320;2022-07-06T04:56:55;4.00;;;2.40;;
58101;SDS011;52034;51.926;6.320;2022-07-06T04:57:55;3.37;;;2.10;;
58101;SDS011;52034;51.926;6.320;2022-07-06T04:58:55;4.40;;;2.17;;
58101;SDS011;52034;51.926;6.320;2022-07-06T04:59:56;4.73;;;2.33;;
58101;SDS011;52034;51.926;6.320;2022-07-06T05:00:56;6.93;;;2.30;;
58101;SDS011;52034;51.926;6.320;2022-07-06T05:01:56;2.50;;;2.10;;
58101;SDS011;52034;51.926;6.320;2022-07-06T05:02:57;4.17;;;2.20;;
58101;SDS011;52034;51.926;6.320;2022-07-06T05:03:57;5.03;;;2.30;;
58101;SDS011;52034;51.926;6.320;2022-07-06T05:04:57;2.83;;;2.30;;
58101;SDS011;52034;51.926;6.320;2022-07-06T05:05:58;3.03;;;2.10;;
58101;SDS011;52034;51.926;6.320;2022-07-06T05:06:58;2.43;;;2.03;;
58101;SDS011;52034;51.926;6.320;2022-07-06T05:07:58;5.70;;;2.30;;
58101;SDS011;52034;51.926;6.320;2022-07-06T05:08:59;4.13;;;2.10;;
58101;SDS011;52034;51.926;6.320;2022-07-06T05:09:59;4.20;;;2.23;;
58101;SDS011;52034;51.926;6.320;2022-07-06T05:11:00;5.23;;;2.03;;
58101;SDS011;52034;51.926;6.320;2022-07-06T05:12:00;3.53;;;2.03;;
58101;SDS011;52034;51.926;6.320;2022-07-06T05:13:01;4.00;;;1.97;;
58101;SDS011;52034;51.926;6.320;2022-07-06T05:14:01;2.40;;;2.00;;
58101;SDS011;52034;51.926;6.320;2022-07-06T05:15:01;3.53;;;2.33;;
58101;SDS011;52034;51.926;6.320;2022-07-06T05:16:02;5.03;;;2.40;;
58101;SDS011;52034;51.926;6.320;2022-07-06T05:17:02;3.87;;;2.30;;
58101;SDS011;52034;51.926;6.320;2022-07-06T05:18:03;7.07;;;2.13;;
58101;SDS011;52034;51.926;6.320;2022-07-06T05:19:03;3.07;;;2.27;;
58101;SDS011;52034;51.926;6.320;2022-07-06T05:20:04;3.97;;;2.03;;
58101;SDS011;52034;51.926;6.320;2022-07-06T05:21:05;4.60;;;2.40;;
58101;SDS011;52034;51.926;6.320;2022-07-06T05:22:05;4.47;;;2.43;;
58101;SDS011;52034;51.926;6.320;2022-07-06T05:23:06;3.63;;;2.40;;
58101;SDS011;52034;51.926;6.320;2022-07-06T05:24:06;7.10;;;2.40;;
58101;SDS011;52034;51.926;6.320;2022-07-06T05:25:06;4.33;;;2.37;;
58101;SDS011;52034;51.926;6.320;2022-07-06T05:26:07;4.57;;;2.50;;
58101;SDS011;52034;51.926;6.320;2022-07-06T05:27:07;4.83;;;2.43;;
58101;SDS011;52034;51.926;6.320;2022-07-06T05:28:07;7.07;;;2.50;;
58101;SDS011;52034;51.926;6.320;2022-07-06T05:29:08;7.40;;;2.57;;
58101;SDS011;52034;51.926;6.320;2022-07-06T05:30:08;5.17;;;2.60;;
58101;SDS011;52034;51.926;6.320;2022-07-06T05:31:09;7.10;;;2.73;;
58101;SDS011;52034;51.926;6.320;2022-07-06T05:32:09;5.20;;;2.47;;
58101;SDS011;52034;51.926;6.320;2022-07-06T05:33:09;11.27;;;2.70;;
58101;SDS011;52034;51.926;6.320;2022-07-06T05:34:10;5.93;;;2.83;;
58101;SDS011;52034;51.926;6.320;2022-07-06T05:35:10;5.03;;;2.47;;
58101;SDS011;52034;51.926;6.320;2022-07-06T05:36:10;4.33;;;2.30;;
58101;SDS011;52034;51.926;6.320;2022-07-06T05:37:11;5.80;;;2.43;;
58101;SDS011;52034;51.926;6.320;2022-07-06T05:38:11;3.10;;;2.30;;
58101;SDS011;52034;51.926;6.320;2022-07-06T05:39:11;4.37;;;2.40;;
58101;SDS011;52034;51.926;6.320;2022-07-06T05:40:12;5.20;;;2.43;;
58101;SDS011;52034;51.926;6.320;2022-07-06T05:41:12;4.83;;;2.40;;
58101;SDS011;52034;51.926;6.320;2022-07-06T05:42:12;5.67;;;2.20;;
58101;SDS011;52034;51.926;6.320;2022-07-06T05:43:13;5.63;;;2.57;;
58101;SDS011;52034;51.926;6.320;2022-07-06T05:44:13;5.77;;;2.40;;
58101;SDS011;52034;51.926;6.320;2022-07-06T05:45:13;4.00;;;2.17;;
58101;SDS011;52034;51.926;6.320;2022-07-06T05:46:14;4.43;;;2.50;;
58101;SDS011;52034;51.926;6.320;2022-07-06T05:47:14;4.80;;;2.50;;
58101;SDS011;52034;51.926;6.320;2022-07-06T05:48:33;4.20;;;1.92;;
58101;SDS011;52034;51.926;6.320;2022-07-06T05:49:52;5.00;;;2.30;;
58101;SDS011;52034;51.926;6.320;2022-07-06T05:51:11;4.75;;;2.30;;
58101;SDS011;52034;51.926;6.320;2022-07-06T05:52:11;4.00;;;2.00;;
58101;SDS011;52034;51.926;6.320;2022-07-06T05:53:11;4.57;;;2.43;;
58101;SDS011;52034;51.926;6.320;2022-07-06T05:54:12;4.70;;;2.80;;
58101;SDS011;52034;51.926;6.320;2022-07-06T05:55:12;4.33;;;2.30;;
58101;SDS011;52034;51.926;6.320;2022-07-06T05:56:13;7.27;;;2.50;;
58101;SDS011;52034;51.926;6.320;2022-07-06T05:57:13;5.07;;;2.40;;
58101;SDS011;52034;51.926;6.320;2022-07-06T05:58:13;3.43;;;2.40;;
58101;SDS011;52034;51.926;6.320;2022-07-06T05:59:14;7.93;;;2.40;;
58101;SDS011;52034;51.926;6.320;2022-07-06T06:00:15;5.03;;;2.43;;
58101;SDS011;52034;51.926;6.320;2022-07-06T06:01:15;3.50;;;2.43;;
58101;SDS011;52034;51.926;6.320;2022-07-06T06:02:15;3.43;;;2.33;;
58101;SDS011;52034;51.926;6.320;2022-07-06T06:03:16;3.10;;;2.00;;
58101;SDS011;52034;51.926;6.320;2022-07-06T06:04:16;4.87;;;2.40;;
58101;SDS011;52034;51.926;6.320;2022-07-06T06:05:17;5.67;;;2.50;;
58101;SDS011;52034;51.926;6.320;2022-07-06T06:06:17;5.47;;;2.30;;
58101;SDS011;52034;51.926;6.320;2022-07-06T06:07:17;4.20;;;2.70;;
58101;SDS011;52034;51.926;6.320;2022-07-06T06:08:18;6.20;;;2.17;;
58101;SDS011;52034;51.926;6.320;2022-07-06T06:09:18;5.80;;;2.53;;